sensor_id;sensor_type;location;lat;lon;timestamp;P1;durP1;ratioP1;P2;durP2;ratioP2
2338;SDS011;1180;51.438;6.978;2023-04-25T00:01:37;9.73;;;4.20;;
2338;SDS011;1180;51.438;6.978;2023-04-25T00:04:03;8.37;;;3.80;;
2338;SDS011;1180;51.438;6.978;2023-04-25T00:06:31;8.00;;;5.03;;
2338;SDS011;1180;51.438;6.978;2023-04-25T00:08:57;8.90;;;4.80;;
2338;SDS011;1180;51.438;6.978;2023-04-25T00:11:22;7.93;;;4.43;;
2338;SDS011;1180;51.438;6.978;2023-04-25T00:13:48;10.50;;;4.00;;
2338;SDS011;1180;51.438;6.978;2023-04-25T00:16:15;8.60;;;4.60;;
2338;SDS011;1180;51.438;6.978;2023-04-25T00:18:41;7.80;;;3.90;;
2338;SDS011;1180;51.438;6.978;2023-04-25T00:21:07;7.30;;;3.80;;
2338;SDS011;1180;51.438;6.978;2023-04-25T00:23:32;8.47;;;4.30;;
2338;SDS011;1180;51.438;6.978;2023-04-25T00:26:00;6.97;;;3.73;;
2338;SDS011;1180;51.438;6.978;2023-04-25T00:28:26;8.23;;;4.20;;
2338;SDS011;1180;51.438;6.978;2023-04-25T00:30:51;7.23;;;3.90;;
2338;SDS011;1180;51.438;6.978;2023-04-25T00:33:18;6.67;;;3.63;;
2338;SDS011;1180;51.438;6.978;2023-04-25T00:35:43;6.90;;;4.40;;
2338;SDS011;1180;51.438;6.978;2023-04-25T00:38:09;7.40;;;3.67;;
2338;SDS011;1180;51.438;6.978;2023-04-25T00:40:34;4.97;;;3.40;;
2338;SDS011;1180;51.438;6.978;2023-04-25T00:43:00;10.70;;;3.83;;
2338;SDS011;1180;51.438;6.978;2023-04-25T00:45:29;11.17;;;4.00;;
2338;SDS011;1180;51.438;6.978;2023-04-25T00:47:57;10.50;;;4.73;;
2338;SDS011;1180;51.438;6.978;2023-04-25T00:50:23;9.33;;;4.10;;
2338;SDS011;1180;51.438;6.978;2023-04-25T00:52:49;7.67;;;3.27;;
2338;SDS011;1180;51.438;6.978;2023-04-25T00:55:15;9.17;;;3.67;;
2338;SDS011;1180;51.438;6.978;2023-04-25T00:57:41;5.00;;;4.30;;
2338;SDS011;1180;51.438;6.978;2023-04-25T01:00:08;13.30;;;5.00;;
2338;SDS011;1180;51.438;6.978;2023-04-25T01:02:34;9.63;;;4.50;;
2338;SDS011;1180;51.438;6.978;2023-04-25T01:05:00;6.87;;;4.87;;
2338;SDS011;1180;51.438;6.978;2023-04-25T01:07:27;6.40;;;4.77;;
2338;SDS011;1180;51.438;6.978;2023-04-25T01:09:52;11.53;;;4.70;;
2338;SDS011;1180;51.438;6.978;2023-04-25T01:12:18;8.50;;;4.97;;
2338;SDS011;1180;51.438;6.978;2023-04-25T01:14:43;16.40;;;5.37;;
2338;SDS011;1180;51.438;6.978;2023-04-25T01:17:09;7.90;;;4.23;;
2338;SDS011;1180;51.438;6.978;2023-04-25T01:19:36;14.70;;;5.07;;
2338;SDS011;1180;51.438;6.978;2023-04-25T01:22:01;7.73;;;4.70;;
2338;SDS011;1180;51.438;6.978;2023-04-25T01:24:27;7.47;;;5.77;;
2338;SDS011;1180;51.438;6.978;2023-04-25T01:26:53;7.77;;;4.90;;
2338;SDS011;1180;51.438;6.978;2023-04-25T01:29:21;10.53;;;5.60;;
2338;SDS011;1180;51.438;6.978;2023-04-25T01:31:49;6.50;;;4.40;;
2338;SDS011;1180;51.438;6.978;2023-04-25T01:34:17;9.03;;;4.50;;
2338;SDS011;1180;51.438;6.978;2023-04-25T01:36:43;12.47;;;5.40;;
2338;SDS011;1180;51.438;6.978;2023-04-25T01:39:09;8.07;;;5.43;;
2338;SDS011;1180;51.438;6.978;2023-04-25T01:41:34;11.77;;;4.80;;
2338;SDS011;1180;51.438;6.978;2023-04-25T01:44:00;11.13;;;5.77;;
2338;SDS011;1180;51.438;6.978;2023-04-25T01:46:26;12.73;;;5.30;;
2338;SDS011;1180;51.438;6.978;2023-04-25T01:48:52;10.77;;;5.70;;
2338;SDS011;1180;51.438;6.978;2023-04-25T01:51:17;8.90;;;4.23;;
2338;SDS011;1180;51.438;6.978;2023-04-25T01:53:43;9.30;;;5.20;;
2338;SDS011;1180;51.438;6.978;2023-04-25T01:56:09;12.70;;;5.20;;
2338;SDS011;1180;51.438;6.978;2023-04-25T01:58:34;10.13;;;5.10;;
2338;SDS011;1180;51.438;6.978;2023-04-25T02:01:00;9.20;;;5.03;;
2338;SDS011;1180;51.438;6.978;2023-04-25T02:03:25;9.33;;;4.33;;
2338;SDS011;1180;51.438;6.978;2023-04-25T02:05:51;8.87;;;5.00;;
2338;SDS011;1180;51.438;6.978;2023-04-25T02:08:16;8.37;;;4.47;;
2338;SDS011;1180;51.438;6.978;2023-04-25T02:10:42;7.87;;;4.20;;
2338;SDS011;1180;51.438;6.978;2023-04-25T02:13:08;8.53;;;5.93;;
2338;SDS011;1180;51.438;6.978;2023-04-25T02:15:33;11.10;;;5.60;;
2338;SDS011;1180;51.438;6.978;2023-04-25T02:17:59;10.70;;;5.90;;
2338;SDS011;1180;51.438;6.978;2023-04-25T02:20:25;6.17;;;4.37;;
2338;SDS011;1180;51.438;6.978;2023-04-25T02:22:51;7.70;;;4.93;;
2338;SDS011;1180;51.438;6.978;2023-04-25T02:25:17;13.27;;;6.20;;
2338;SDS011;1180;51.438;6.978;2023-04-25T02:27:44;7.87;;;5.17;;
2338;SDS011;1180;51.438;6.978;2023-04-25T02:30:10;7.47;;;5.23;;
2338;SDS011;1180;51.438;6.978;2023-04-25T02:32:36;12.13;;;6.20;;
2338;SDS011;1180;51.438;6.978;2023-04-25T02:35:01;8.60;;;5.43;;
2338;SDS011;1180;51.438;6.978;2023-04-25T02:37:34;6.50;;;4.83;;
2338;SDS011;1180;51.438;6.978;2023-04-25T02:40:01;12.40;;;5.20;;
2338;SDS011;1180;51.438;6.978;2023-04-25T02:42:28;11.03;;;5.40;;
2338;SDS011;1180;51.438;6.978;2023-04-25T02:44:53;18.30;;;6.60;;
2338;SDS011;1180;51.438;6.978;2023-04-25T02:47:19;10.47;;;5.90;;
2338;SDS011;1180;51.438;6.978;2023-04-25T02:49:44;14.30;;;5.63;;
2338;SDS011;1180;51.438;6.978;2023-04-25T02:52:10;10.30;;;5.20;;
2338;SDS011;1180;51.438;6.978;2023-04-25T02:54:36;11.50;;;5.30;;
2338;SDS011;1180;51.438;6.978;2023-04-25T02:57:01;11.20;;;6.43;;
2338;SDS011;1180;51.438;6.978;2023-04-25T02:59:27;10.10;;;5.70;;
2338;SDS011;1180;51.438;6.978;2023-04-25T03:01:53;11.53;;;6.27;;
2338;SDS011;1180;51.438;6.978;2023-04-25T03:04:18;11.57;;;6.57;;
2338;SDS011;1180;51.438;6.978;2023-04-25T03:06:44;10.47;;;6.20;;
2338;SDS011;1180;51.438;6.978;2023-04-25T03:09:10;12.60;;;6.30;;
2338;SDS011;1180;51.438;6.978;2023-04-25T03:11:36;12.60;;;5.97;;
2338;SDS011;1180;51.438;6.978;2023-04-25T03:14:03;12.73;;;6.60;;
2338;SDS011;1180;51.438;6.978;2023-04-25T03:16:29;12.77;;;6.60;;
2338;SDS011;1180;51.438;6.978;2023-04-25T03:18:56;11.03;;;6.73;;
2338;SDS011;1180;51.438;6.978;2023-04-25T03:21:22;10.00;;;5.70;;
2338;SDS011;1180;51.438;6.978;2023-04-25T03:23:48;14.97;;;7.00;;
2338;SDS011;1180;51.438;6.978;2023-04-25T03:26:14;11.77;;;6.53;;
2338;SDS011;1180;51.438;6.978;2023-04-25T03:28:41;17.30;;;6.80;;
2338;SDS011;1180;51.438;6.978;2023-04-25T03:31:07;9.53;;;5.43;;
2338;SDS011;1180;51.438;6.978;2023-04-25T03:33:32;9.40;;;6.40;;
2338;SDS011;1180;51.438;6.978;2023-04-25T03:35:57;11.03;;;6.77;;
2338;SDS011;1180;51.438;6.978;2023-04-25T03:38:23;14.67;;;7.63;;
2338;SDS011;1180;51.438;6.978;2023-04-25T03:40:50;15.67;;;7.20;;
2338;SDS011;1180;51.438;6.978;2023-04-25T03:43:16;14.13;;;7.90;;
2338;SDS011;1180;51.438;6.978;2023-04-25T03:45:42;13.83;;;8.70;;
2338;SDS011;1180;51.438;6.978;2023-04-25T03:48:08;12.70;;;7.17;;
2338;SDS011;1180;51.438;6.978;2023-04-25T03:50:33;20.13;;;7.63;;
2338;SDS011;1180;51.438;6.978;2023-04-25T03:52:59;14.87;;;6.90;;
2338;SDS011;1180;51.438;6.978;2023-04-25T03:55:24;14.07;;;6.37;;
2338;SDS011;1180;51.438;6.978;2023-04-25T03:57:49;14.20;;;6.43;;
2338;SDS011;1180;51.438;6.978;2023-04-25T04:00:15;12.33;;;5.73;;
2338;SDS011;1180;51.438;6.978;2023-04-25T04:02:40;13.77;;;7.57;;
2338;SDS011;1180;51.438;6.978;2023-04-25T04:05:06;15.83;;;5.97;;
2338;SDS011;1180;51.438;6.978;2023-04-25T04:07:32;13.57;;;6.00;;
2338;SDS011;1180;51.438;6.978;2023-04-25T04:09:58;10.83;;;6.77;;
2338;SDS011;1180;51.438;6.978;2023-04-25T04:12:24;10.63;;;5.90;;
2338;SDS011;1180;51.438;6.978;2023-04-25T04:14:50;11.27;;;5.80;;
2338;SDS011;1180;51.438;6.978;2023-04-25T04:17:16;15.80;;;6.97;;
2338;SDS011;1180;51.438;6.978;2023-04-25T04:19:41;11.00;;;7.10;;
2338;SDS011;1180;51.438;6.978;2023-04-25T04:22:06;15.70;;;6.83;;
2338;SDS011;1180;51.438;6.978;2023-04-25T04:24:32;9.27;;;5.53;;
2338;SDS011;1180;51.438;6.978;2023-04-25T04:26:57;22.23;;;7.60;;
2338;SDS011;1180;51.438;6.978;2023-04-25T04:29:23;14.00;;;7.57;;
2338;SDS011;1180;51.438;6.978;2023-04-25T04:31:49;13.23;;;7.43;;
2338;SDS011;1180;51.438;6.978;2023-04-25T04:34:15;17.00;;;7.77;;
2338;SDS011;1180;51.438;6.978;2023-04-25T04:36:47;18.80;;;8.00;;
2338;SDS011;1180;51.438;6.978;2023-04-25T04:39:12;12.57;;;7.10;;
2338;SDS011;1180;51.438;6.978;2023-04-25T04:41:38;16.00;;;7.40;;
2338;SDS011;1180;51.438;6.978;2023-04-25T04:44:04;17.40;;;7.20;;
2338;SDS011;1180;51.438;6.978;2023-04-25T04:46:29;18.67;;;6.30;;
2338;SDS011;1180;51.438;6.978;2023-04-25T04:48:56;17.10;;;6.60;;
2338;SDS011;1180;51.438;6.978;2023-04-25T04:51:21;13.77;;;6.63;;
2338;SDS011;1180;51.438;6.978;2023-04-25T04:53:47;14.00;;;6.03;;
2338;SDS011;1180;51.438;6.978;2023-04-25T04:56:12;21.00;;;7.50;;
2338;SDS011;1180;51.438;6.978;2023-04-25T04:58:37;16.13;;;6.50;;
2338;SDS011;1180;51.438;6.978;2023-04-25T05:01:03;15.07;;;5.63;;
2338;SDS011;1180;51.438;6.978;2023-04-25T05:03:28;15.30;;;7.23;;
2338;SDS011;1180;51.438;6.978;2023-04-25T05:05:54;11.03;;;5.27;;
2338;SDS011;1180;51.438;6.978;2023-04-25T05:08:19;13.63;;;5.60;;
2338;SDS011;1180;51.438;6.978;2023-04-25T05:10:44;15.33;;;5.10;;
2338;SDS011;1180;51.438;6.978;2023-04-25T05:13:10;11.37;;;5.37;;
2338;SDS011;1180;51.438;6.978;2023-04-25T05:15:35;12.07;;;5.67;;
2338;SDS011;1180;51.438;6.978;2023-04-25T05:18:01;13.83;;;5.27;;
2338;SDS011;1180;51.438;6.978;2023-04-25T05:20:27;9.00;;;5.23;;
2338;SDS011;1180;51.438;6.978;2023-04-25T05:22:52;15.50;;;5.40;;
2338;SDS011;1180;51.438;6.978;2023-04-25T05:25:17;12.90;;;5.97;;
2338;SDS011;1180;51.438;6.978;2023-04-25T05:27:43;9.53;;;6.00;;
2338;SDS011;1180;51.438;6.978;2023-04-25T05:30:08;11.20;;;5.27;;
2338;SDS011;1180;51.438;6.978;2023-04-25T05:32:34;11.17;;;5.93;;
2338;SDS011;1180;51.438;6.978;2023-04-25T05:35:00;8.67;;;5.00;;
2338;SDS011;1180;51.438;6.978;2023-04-25T05:37:25;15.20;;;6.23;;
2338;SDS011;1180;51.438;6.978;2023-04-25T05:39:51;13.77;;;7.37;;
2338;SDS011;1180;51.438;6.978;2023-04-25T05:42:16;13.23;;;5.97;;
2338;SDS011;1180;51.438;6.978;2023-04-25T05:44:42;8.90;;;4.80;;
2338;SDS011;1180;51.438;6.978;2023-04-25T05:47:07;15.93;;;5.70;;
2338;SDS011;1180;51.438;6.978;2023-04-25T05:49:33;18.80;;;6.70;;
2338;SDS011;1180;51.438;6.978;2023-04-25T05:51:59;20.40;;;6.10;;
2338;SDS011;1180;51.438;6.978;2023-04-25T05:54:24;12.70;;;5.13;;
2338;SDS011;1180;51.438;6.978;2023-04-25T05:56:50;14.20;;;6.77;;
2338;SDS011;1180;51.438;6.978;2023-04-25T05:59:15;12.93;;;5.90;;
2338;SDS011;1180;51.438;6.978;2023-04-25T06:01:41;13.40;;;5.70;;
2338;SDS011;1180;51.438;6.978;2023-04-25T06:04:07;13.57;;;5.37;;
2338;SDS011;1180;51.438;6.978;2023-04-25T06:06:32;15.87;;;5.50;;
2338;SDS011;1180;51.438;6.978;2023-04-25T06:08:57;13.63;;;5.97;;
2338;SDS011;1180;51.438;6.978;2023-04-25T06:11:23;13.27;;;5.40;;
2338;SDS011;1180;51.438;6.978;2023-04-25T06:13:48;14.53;;;5.80;;
2338;SDS011;1180;51.438;6.978;2023-04-25T06:16:13;8.03;;;4.40;;
2338;SDS011;1180;51.438;6.978;2023-04-25T06:18:39;9.13;;;5.70;;
2338;SDS011;1180;51.438;6.978;2023-04-25T06:21:05;20.90;;;6.87;;
2338;SDS011;1180;51.438;6.978;2023-04-25T06:23:30;15.93;;;4.87;;
2338;SDS011;1180;51.438;6.978;2023-04-25T06:25:55;14.63;;;5.77;;
2338;SDS011;1180;51.438;6.978;2023-04-25T06:28:21;8.83;;;5.20;;
2338;SDS011;1180;51.438;6.978;2023-04-25T06:30:47;9.33;;;4.57;;
2338;SDS011;1180;51.438;6.978;2023-04-25T06:33:12;8.87;;;5.20;;
2338;SDS011;1180;51.438;6.978;2023-04-25T06:35:37;16.87;;;6.40;;
2338;SDS011;1180;51.438;6.978;2023-04-25T06:38:03;18.87;;;5.30;;
2338;SDS011;1180;51.438;6.978;2023-04-25T06:40:28;14.37;;;5.77;;
2338;SDS011;1180;51.438;6.978;2023-04-25T06:42:53;10.97;;;5.50;;
2338;SDS011;1180;51.438;6.978;2023-04-25T06:45:19;8.23;;;4.13;;
2338;SDS011;1180;51.438;6.978;2023-04-25T06:47:44;8.90;;;4.40;;
2338;SDS011;1180;51.438;6.978;2023-04-25T06:50:10;12.23;;;4.73;;
2338;SDS011;1180;51.438;6.978;2023-04-25T06:52:36;17.10;;;5.20;;
2338;SDS011;1180;51.438;6.978;2023-04-25T06:55:01;10.93;;;5.33;;
2338;SDS011;1180;51.438;6.978;2023-04-25T06:57:27;10.83;;;4.70;;
2338;SDS011;1180;51.438;6.978;2023-04-25T06:59:52;12.07;;;4.70;;
2338;SDS011;1180;51.438;6.978;2023-04-25T07:02:19;11.13;;;4.43;;
2338;SDS011;1180;51.438;6.978;2023-04-25T07:04:46;9.30;;;5.40;;
2338;SDS011;1180;51.438;6.978;2023-04-25T07:07:11;11.33;;;4.40;;
2338;SDS011;1180;51.438;6.978;2023-04-25T07:09:36;13.40;;;4.60;;
2338;SDS011;1180;51.438;6.978;2023-04-25T07:12:02;13.50;;;4.57;;
2338;SDS011;1180;51.438;6.978;2023-04-25T07:14:28;8.40;;;4.67;;
2338;SDS011;1180;51.438;6.978;2023-04-25T07:16:53;15.00;;;4.03;;
2338;SDS011;1180;51.438;6.978;2023-04-25T07:19:21;11.93;;;4.13;;
2338;SDS011;1180;51.438;6.978;2023-04-25T07:21:48;14.80;;;4.67;;
2338;SDS011;1180;51.438;6.978;2023-04-25T07:24:14;4.13;;;2.73;;
2338;SDS011;1180;51.438;6.978;2023-04-25T07:26:39;8.83;;;3.20;;
2338;SDS011;1180;51.438;6.978;2023-04-25T07:29:04;5.60;;;2.87;;
2338;SDS011;1180;51.438;6.978;2023-04-25T07:31:30;14.90;;;3.83;;
2338;SDS011;1180;51.438;6.978;2023-04-25T07:33:55;11.00;;;3.80;;
2338;SDS011;1180;51.438;6.978;2023-04-25T07:36:20;6.97;;;2.50;;
2338;SDS011;1180;51.438;6.978;2023-04-25T07:38:46;10.53;;;3.83;;
2338;SDS011;1180;51.438;6.978;2023-04-25T07:41:11;9.67;;;3.80;;
2338;SDS011;1180;51.438;6.978;2023-04-25T07:43:37;5.30;;;3.80;;
2338;SDS011;1180;51.438;6.978;2023-04-25T07:46:02;6.13;;;2.70;;
2338;SDS011;1180;51.438;6.978;2023-04-25T07:48:27;5.97;;;2.73;;
2338;SDS011;1180;51.438;6.978;2023-04-25T07:50:53;7.00;;;2.40;;
2338;SDS011;1180;51.438;6.978;2023-04-25T07:53:18;5.53;;;2.33;;
2338;SDS011;1180;51.438;6.978;2023-04-25T07:55:43;5.73;;;2.43;;
2338;SDS011;1180;51.438;6.978;2023-04-25T07:58:09;5.20;;;2.17;;
2338;SDS011;1180;51.438;6.978;2023-04-25T08:00:37;4.93;;;2.80;;
2338;SDS011;1180;51.438;6.978;2023-04-25T08:03:03;7.40;;;2.80;;
2338;SDS011;1180;51.438;6.978;2023-04-25T08:05:28;10.43;;;2.93;;
2338;SDS011;1180;51.438;6.978;2023-04-25T08:07:54;5.20;;;2.20;;
2338;SDS011;1180;51.438;6.978;2023-04-25T08:10:21;4.80;;;2.37;;
2338;SDS011;1180;51.438;6.978;2023-04-25T08:12:47;6.83;;;2.67;;
2338;SDS011;1180;51.438;6.978;2023-04-25T08:15:13;7.23;;;2.57;;
2338;SDS011;1180;51.438;6.978;2023-04-25T08:17:39;5.17;;;1.90;;
2338;SDS011;1180;51.438;6.978;2023-04-25T08:20:04;5.27;;;2.33;;
2338;SDS011;1180;51.438;6.978;2023-04-25T08:22:30;7.60;;;3.03;;
2338;SDS011;1180;51.438;6.978;2023-04-25T08:24:56;10.73;;;2.70;;
2338;SDS011;1180;51.438;6.978;2023-04-25T08:27:22;6.40;;;2.47;;
2338;SDS011;1180;51.438;6.978;2023-04-25T08:29:47;15.27;;;2.90;;
2338;SDS011;1180;51.438;6.978;2023-04-25T08:32:12;6.50;;;2.10;;
2338;SDS011;1180;51.438;6.978;2023-04-25T08:34:38;9.80;;;2.97;;
2338;SDS011;1180;51.438;6.978;2023-04-25T08:37:07;9.20;;;2.93;;
2338;SDS011;1180;51.438;6.978;2023-04-25T08:39:33;10.17;;;2.50;;
2338;SDS011;1180;51.438;6.978;2023-04-25T08:41:58;5.93;;;2.53;;
2338;SDS011;1180;51.438;6.978;2023-04-25T08:44:26;16.10;;;2.90;;
2338;SDS011;1180;51.438;6.978;2023-04-25T08:46:51;8.33;;;3.00;;
2338;SDS011;1180;51.438;6.978;2023-04-25T08:49:17;12.40;;;2.70;;
2338;SDS011;1180;51.438;6.978;2023-04-25T08:51:44;10.97;;;2.70;;
2338;SDS011;1180;51.438;6.978;2023-04-25T08:54:15;8.67;;;2.97;;
2338;SDS011;1180;51.438;6.978;2023-04-25T08:56:41;13.03;;;2.90;;
2338;SDS011;1180;51.438;6.978;2023-04-25T08:59:11;7.77;;;2.43;;
2338;SDS011;1180;51.438;6.978;2023-04-25T09:01:37;4.93;;;2.40;;
2338;SDS011;1180;51.438;6.978;2023-04-25T09:04:02;4.00;;;2.23;;
2338;SDS011;1180;51.438;6.978;2023-04-25T09:06:28;9.00;;;2.00;;
2338;SDS011;1180;51.438;6.978;2023-04-25T09:08:55;7.50;;;2.47;;
2338;SDS011;1180;51.438;6.978;2023-04-25T09:11:28;5.70;;;2.87;;
2338;SDS011;1180;51.438;6.978;2023-04-25T09:14:09;7.07;;;2.17;;
2338;SDS011;1180;51.438;6.978;2023-04-25T09:19:25;7.90;;;1.83;;
2338;SDS011;1180;51.438;6.978;2023-04-25T09:21:58;4.63;;;2.10;;
2338;SDS011;1180;51.438;6.978;2023-04-25T09:27:08;5.80;;;2.37;;
2338;SDS011;1180;51.438;6.978;2023-04-25T09:29:36;7.63;;;2.90;;
2338;SDS011;1180;51.438;6.978;2023-04-25T09:34:40;4.87;;;2.50;;
2338;SDS011;1180;51.438;6.978;2023-04-25T09:37:22;6.03;;;1.80;;
2338;SDS011;1180;51.438;6.978;2023-04-25T09:39:53;5.47;;;2.17;;
2338;SDS011;1180;51.438;6.978;2023-04-25T09:42:23;5.73;;;2.40;;
2338;SDS011;1180;51.438;6.978;2023-04-25T09:44:51;7.73;;;2.90;;
2338;SDS011;1180;51.438;6.978;2023-04-25T09:47:18;3.83;;;1.80;;
2338;SDS011;1180;51.438;6.978;2023-04-25T09:49:46;4.33;;;2.03;;
2338;SDS011;1180;51.438;6.978;2023-04-25T09:52:16;3.47;;;1.60;;
2338;SDS011;1180;51.438;6.978;2023-04-25T09:54:43;3.70;;;1.63;;
2338;SDS011;1180;51.438;6.978;2023-04-25T09:59:43;2.97;;;1.80;;
2338;SDS011;1180;51.438;6.978;2023-04-25T10:02:10;2.43;;;1.30;;
2338;SDS011;1180;51.438;6.978;2023-04-25T10:04:36;5.43;;;1.60;;
2338;SDS011;1180;51.438;6.978;2023-04-25T10:07:03;6.00;;;1.93;;
2338;SDS011;1180;51.438;6.978;2023-04-25T10:09:31;5.30;;;2.53;;
2338;SDS011;1180;51.438;6.978;2023-04-25T10:12:00;4.33;;;1.57;;
2338;SDS011;1180;51.438;6.978;2023-04-25T10:14:26;3.03;;;1.63;;
2338;SDS011;1180;51.438;6.978;2023-04-25T10:16:52;5.93;;;1.63;;
2338;SDS011;1180;51.438;6.978;2023-04-25T10:19:21;3.50;;;1.40;;
2338;SDS011;1180;51.438;6.978;2023-04-25T10:24:31;6.03;;;2.37;;
2338;SDS011;1180;51.438;6.978;2023-04-25T10:26:57;10.17;;;2.13;;
2338;SDS011;1180;51.438;6.978;2023-04-25T10:29:26;5.00;;;1.70;;
2338;SDS011;1180;51.438;6.978;2023-04-25T10:31:52;3.30;;;1.50;;
2338;SDS011;1180;51.438;6.978;2023-04-25T10:34:18;6.57;;;2.50;;
2338;SDS011;1180;51.438;6.978;2023-04-25T10:36:49;5.50;;;2.00;;
2338;SDS011;1180;51.438;6.978;2023-04-25T10:39:21;5.50;;;2.23;;
2338;SDS011;1180;51.438;6.978;2023-04-25T10:41:55;4.73;;;2.20;;
2338;SDS011;1180;51.438;6.978;2023-04-25T10:44:23;4.30;;;2.17;;
2338;SDS011;1180;51.438;6.978;2023-04-25T10:46:51;11.27;;;2.17;;
2338;SDS011;1180;51.438;6.978;2023-04-25T10:55:13;7.70;;;1.60;;
2338;SDS011;1180;51.438;6.978;2023-04-25T10:57:36;13.33;;;2.20;;
2338;SDS011;1180;51.438;6.978;2023-04-25T11:00:22;6.50;;;1.80;;
2338;SDS011;1180;51.438;6.978;2023-04-25T11:02:48;4.37;;;2.23;;
2338;SDS011;1180;51.438;6.978;2023-04-25T11:05:20;4.37;;;2.17;;
2338;SDS011;1180;51.438;6.978;2023-04-25T11:07:51;3.87;;;1.80;;
2338;SDS011;1180;51.438;6.978;2023-04-25T11:10:19;3.37;;;1.83;;
2338;SDS011;1180;51.438;6.978;2023-04-25T11:12:45;3.57;;;1.50;;
2338;SDS011;1180;51.438;6.978;2023-04-25T11:15:12;4.90;;;1.97;;
2338;SDS011;1180;51.438;6.978;2023-04-25T11:17:38;4.50;;;1.97;;
2338;SDS011;1180;51.438;6.978;2023-04-25T11:20:05;8.10;;;1.40;;
2338;SDS011;1180;51.438;6.978;2023-04-25T11:22:37;5.73;;;1.63;;
2338;SDS011;1180;51.438;6.978;2023-04-25T11:25:10;2.37;;;1.77;;
2338;SDS011;1180;51.438;6.978;2023-04-25T11:27:38;8.20;;;2.40;;
2338;SDS011;1180;51.438;6.978;2023-04-25T11:30:19;3.53;;;1.97;;
2338;SDS011;1180;51.438;6.978;2023-04-25T11:32:45;6.77;;;3.43;;
2338;SDS011;1180;51.438;6.978;2023-04-25T11:35:12;2.70;;;1.40;;
2338;SDS011;1180;51.438;6.978;2023-04-25T11:37:41;3.30;;;1.70;;
2338;SDS011;1180;51.438;6.978;2023-04-25T11:40:09;6.40;;;1.70;;
2338;SDS011;1180;51.438;6.978;2023-04-25T11:42:39;4.03;;;2.07;;
2338;SDS011;1180;51.438;6.978;2023-04-25T11:45:11;4.37;;;1.87;;
2338;SDS011;1180;51.438;6.978;2023-04-25T11:47:37;4.70;;;1.40;;
2338;SDS011;1180;51.438;6.978;2023-04-25T11:50:03;4.63;;;2.20;;
2338;SDS011;1180;51.438;6.978;2023-04-25T11:52:41;3.10;;;1.73;;
2338;SDS011;1180;51.438;6.978;2023-04-25T11:55:15;4.07;;;1.43;;
2338;SDS011;1180;51.438;6.978;2023-04-25T11:57:43;3.63;;;2.00;;
2338;SDS011;1180;51.438;6.978;2023-04-25T12:02:40;3.67;;;1.70;;
2338;SDS011;1180;51.438;6.978;2023-04-25T12:05:07;3.83;;;1.90;;
2338;SDS011;1180;51.438;6.978;2023-04-25T12:07:35;4.37;;;2.07;;
2338;SDS011;1180;51.438;6.978;2023-04-25T12:10:05;6.53;;;2.30;;
2338;SDS011;1180;51.438;6.978;2023-04-25T12:12:33;3.97;;;1.80;;
2338;SDS011;1180;51.438;6.978;2023-04-25T12:15:09;4.50;;;1.60;;
2338;SDS011;1180;51.438;6.978;2023-04-25T12:17:35;5.13;;;2.00;;
2338;SDS011;1180;51.438;6.978;2023-04-25T12:20:24;4.00;;;2.20;;
2338;SDS011;1180;51.438;6.978;2023-04-25T12:22:51;4.90;;;2.60;;
2338;SDS011;1180;51.438;6.978;2023-04-25T12:25:36;5.17;;;2.93;;
2338;SDS011;1180;51.438;6.978;2023-04-25T12:28:19;2.30;;;1.97;;
2338;SDS011;1180;51.438;6.978;2023-04-25T12:30:53;5.20;;;2.27;;
2338;SDS011;1180;51.438;6.978;2023-04-25T12:33:19;3.80;;;1.93;;
2338;SDS011;1180;51.438;6.978;2023-04-25T12:35:44;3.70;;;1.87;;
2338;SDS011;1180;51.438;6.978;2023-04-25T12:38:10;3.40;;;1.50;;
2338;SDS011;1180;51.438;6.978;2023-04-25T12:40:36;5.77;;;1.87;;
2338;SDS011;1180;51.438;6.978;2023-04-25T12:43:01;5.80;;;1.53;;
2338;SDS011;1180;51.438;6.978;2023-04-25T12:45:27;5.20;;;1.50;;
2338;SDS011;1180;51.438;6.978;2023-04-25T12:47:53;3.23;;;1.70;;
2338;SDS011;1180;51.438;6.978;2023-04-25T12:50:18;2.80;;;1.47;;
2338;SDS011;1180;51.438;6.978;2023-04-25T12:52:44;5.67;;;2.57;;
2338;SDS011;1180;51.438;6.978;2023-04-25T12:55:09;3.57;;;2.30;;
2338;SDS011;1180;51.438;6.978;2023-04-25T12:57:35;4.43;;;1.97;;
2338;SDS011;1180;51.438;6.978;2023-04-25T13:00:00;7.33;;;2.07;;
2338;SDS011;1180;51.438;6.978;2023-04-25T13:02:26;5.87;;;1.87;;
2338;SDS011;1180;51.438;6.978;2023-04-25T13:04:52;2.60;;;1.60;;
2338;SDS011;1180;51.438;6.978;2023-04-25T13:07:17;5.40;;;2.10;;
2338;SDS011;1180;51.438;6.978;2023-04-25T13:09:43;3.40;;;1.90;;
2338;SDS011;1180;51.438;6.978;2023-04-25T13:12:08;3.47;;;1.97;;
2338;SDS011;1180;51.438;6.978;2023-04-25T13:14:34;2.50;;;1.40;;
2338;SDS011;1180;51.438;6.978;2023-04-25T13:16:59;3.63;;;1.60;;
2338;SDS011;1180;51.438;6.978;2023-04-25T13:19:25;4.73;;;1.63;;
2338;SDS011;1180;51.438;6.978;2023-04-25T13:21:51;4.30;;;1.93;;
2338;SDS011;1180;51.438;6.978;2023-04-25T13:24:16;5.03;;;2.00;;
2338;SDS011;1180;51.438;6.978;2023-04-25T13:26:41;5.70;;;1.97;;
2338;SDS011;1180;51.438;6.978;2023-04-25T13:29:08;4.17;;;1.60;;
2338;SDS011;1180;51.438;6.978;2023-04-25T13:31:34;3.87;;;1.60;;
2338;SDS011;1180;51.438;6.978;2023-04-25T13:34:00;2.83;;;1.30;;
2338;SDS011;1180;51.438;6.978;2023-04-25T13:36:25;4.13;;;1.67;;
2338;SDS011;1180;51.438;6.978;2023-04-25T13:38:51;5.63;;;1.63;;
2338;SDS011;1180;51.438;6.978;2023-04-25T13:41:16;3.03;;;1.50;;
2338;SDS011;1180;51.438;6.978;2023-04-25T13:43:44;5.63;;;1.53;;
2338;SDS011;1180;51.438;6.978;2023-04-25T13:46:11;9.07;;;2.17;;
2338;SDS011;1180;51.438;6.978;2023-04-25T13:48:38;2.90;;;1.40;;
2338;SDS011;1180;51.438;6.978;2023-04-25T13:51:04;4.73;;;1.40;;
2338;SDS011;1180;51.438;6.978;2023-04-25T13:53:30;2.30;;;1.50;;
2338;SDS011;1180;51.438;6.978;2023-04-25T13:55:55;4.30;;;2.47;;
2338;SDS011;1180;51.438;6.978;2023-04-25T13:58:21;7.37;;;2.33;;
2338;SDS011;1180;51.438;6.978;2023-04-25T14:00:47;3.10;;;1.80;;
2338;SDS011;1180;51.438;6.978;2023-04-25T14:03:12;3.23;;;1.70;;
2338;SDS011;1180;51.438;6.978;2023-04-25T14:05:38;3.20;;;1.50;;
2338;SDS011;1180;51.438;6.978;2023-04-25T14:08:04;3.60;;;1.50;;
2338;SDS011;1180;51.438;6.978;2023-04-25T14:10:31;5.37;;;1.87;;
2338;SDS011;1180;51.438;6.978;2023-04-25T14:12:56;2.60;;;1.53;;
2338;SDS011;1180;51.438;6.978;2023-04-25T14:15:22;4.30;;;1.27;;
2338;SDS011;1180;51.438;6.978;2023-04-25T14:17:47;4.53;;;1.53;;
2338;SDS011;1180;51.438;6.978;2023-04-25T14:20:13;4.13;;;1.13;;
2338;SDS011;1180;51.438;6.978;2023-04-25T14:22:39;1.77;;;1.43;;
2338;SDS011;1180;51.438;6.978;2023-04-25T14:25:08;4.70;;;1.10;;
2338;SDS011;1180;51.438;6.978;2023-04-25T14:27:34;3.10;;;1.10;;
2338;SDS011;1180;51.438;6.978;2023-04-25T14:29:59;1.37;;;0.97;;
2338;SDS011;1180;51.438;6.978;2023-04-25T14:32:25;2.63;;;1.10;;
2338;SDS011;1180;51.438;6.978;2023-04-25T14:34:50;3.20;;;1.07;;
2338;SDS011;1180;51.438;6.978;2023-04-25T14:37:16;2.07;;;1.50;;
2338;SDS011;1180;51.438;6.978;2023-04-25T14:39:41;3.60;;;1.17;;
2338;SDS011;1180;51.438;6.978;2023-04-25T14:42:07;3.30;;;1.40;;
2338;SDS011;1180;51.438;6.978;2023-04-25T14:44:32;4.67;;;1.47;;
2338;SDS011;1180;51.438;6.978;2023-04-25T14:46:58;3.73;;;1.50;;
2338;SDS011;1180;51.438;6.978;2023-04-25T14:49:23;6.97;;;1.90;;
2338;SDS011;1180;51.438;6.978;2023-04-25T14:51:49;4.90;;;1.67;;
2338;SDS011;1180;51.438;6.978;2023-04-25T14:54:15;2.60;;;1.23;;
2338;SDS011;1180;51.438;6.978;2023-04-25T14:56:40;3.30;;;1.60;;
2338;SDS011;1180;51.438;6.978;2023-04-25T14:59:06;2.83;;;1.63;;
2338;SDS011;1180;51.438;6.978;2023-04-25T15:01:32;2.23;;;1.50;;
2338;SDS011;1180;51.438;6.978;2023-04-25T15:03:57;3.50;;;1.50;;
2338;SDS011;1180;51.438;6.978;2023-04-25T15:06:23;3.70;;;1.70;;
2338;SDS011;1180;51.438;6.978;2023-04-25T15:08:51;3.37;;;1.43;;
2338;SDS011;1180;51.438;6.978;2023-04-25T15:11:18;4.10;;;1.60;;
2338;SDS011;1180;51.438;6.978;2023-04-25T15:13:45;5.10;;;1.47;;
2338;SDS011;1180;51.438;6.978;2023-04-25T15:16:10;2.73;;;1.50;;
2338;SDS011;1180;51.438;6.978;2023-04-25T15:18:36;7.40;;;1.70;;
2338;SDS011;1180;51.438;6.978;2023-04-25T15:21:02;2.90;;;1.60;;
2338;SDS011;1180;51.438;6.978;2023-04-25T15:23:28;6.40;;;1.67;;
2338;SDS011;1180;51.438;6.978;2023-04-25T15:25:53;6.63;;;1.77;;
2338;SDS011;1180;51.438;6.978;2023-04-25T15:28:19;7.60;;;1.50;;